createdAt,value
2023-04-23T00:01:49.842Z,-11183.25
2023-04-23T00:05:04.881Z,-11183.25
2023-04-23T00:08:11.879Z,-11184.94
2023-04-23T00:11:18.913Z,-11187.19
2023-04-23T00:14:25.962Z,-11184.09
2023-04-23T00:17:31.983Z,-11186.06
2023-04-23T00:20:39.604Z,-11170.91
2023-04-23T00:23:46.349Z,-11168.09
2023-04-23T00:26:53.805Z,-11174.25
2023-04-23T00:30:00.568Z,-11176.50
2023-04-23T00:33:07.213Z,-11184.94
2023-04-23T00:36:15.088Z,-11181.44
2023-04-23T00:39:21.037Z,-11177.06
2023-04-23T00:42:28.316Z,-11161.06
2023-04-23T00:45:34.885Z,-11168.37
2023-04-23T00:48:41.516Z,-11172.03
2023-04-23T00:51:48.813Z,-11169.50
2023-04-23T00:54:55.040Z,-11177.78
2023-04-23T00:58:01.941Z,-11177.91
2023-04-23T01:01:08.864Z,-11179.59
2023-04-23T01:04:17.644Z,-11164.72
2023-04-23T01:07:25.378Z,-11166.97
2023-04-23T01:10:32.744Z,-11172.31
2023-04-23T01:13:38.406Z,-11174.69
2023-04-23T01:16:44.796Z,-11164.28
2023-04-23T01:19:50.725Z,-11171.03
2023-04-23T01:22:58.317Z,-11163.16
2023-04-23T01:26:04.760Z,-11153.31
2023-04-23T01:29:12.407Z,-11159.09
2023-04-23T01:32:19.104Z,-11156.13
2023-04-23T01:35:26.831Z,-11149.53
2023-04-23T01:38:35.464Z,-11148.69
2023-04-23T01:41:42.476Z,-11152.34
2023-04-23T01:44:48.919Z,-11158.25
2023-04-23T01:47:55.532Z,-11163.44
2023-04-23T01:51:02.159Z,-11153.47
2023-04-23T01:54:09.645Z,-11155.56
2023-04-23T01:57:16.314Z,-11149.53
2023-04-23T02:00:22.504Z,-11156.13
2023-04-23T02:03:30.595Z,-11167.25
2023-04-23T02:06:37.068Z,-11169.63
2023-04-23T02:09:44.515Z,-11169.06
2023-04-23T02:12:50.870Z,-11175.09
2023-04-23T02:15:57.308Z,-11179.88
2023-04-23T02:19:03.290Z,-11177.63
2023-04-23T02:22:10.479Z,-11179.59
2023-04-23T02:25:21.960Z,-11174.81
2023-04-23T02:28:28.190Z,-11168.22
2023-04-23T02:31:34.474Z,-11166.97
2023-04-23T02:34:40.730Z,-11163.03
2023-04-23T02:37:46.783Z,-11168.66
2023-04-23T02:40:54.461Z,-11173.28
2023-04-23T02:44:00.775Z,-11169.91
2023-04-23T02:47:07.029Z,-11169.22
2023-04-23T02:50:13.547Z,-11162.19
2023-04-23T02:53:19.737Z,-11168.78
2023-04-23T02:56:27.249Z,-11172.88
2023-04-23T02:59:33.971Z,-11161.63
2023-04-23T03:02:40.170Z,-11168.66
2023-04-23T03:05:46.499Z,-11168.09
2023-04-23T03:08:52.607Z,-11150.22
2023-04-23T03:12:00.704Z,-11147.28
2023-04-23T03:15:08.217Z,-11141.66
2023-04-23T03:18:14.452Z,-11139.69
2023-04-23T03:21:20.620Z,-11143.34
2023-04-23T03:24:27.378Z,-11151.06
2023-04-23T03:27:35.408Z,-11144.47
2023-04-23T03:30:41.770Z,-11135.75
2023-04-23T03:33:47.998Z,-11143.22
2023-04-23T03:36:54.089Z,-11139.28
2023-04-23T03:40:01.456Z,-11158.25
2023-04-23T03:43:08.824Z,-11160.34
2023-04-23T03:46:15.184Z,-11158.81
2023-04-23T03:49:21.314Z,-11154.88
2023-04-23T03:52:27.615Z,-11156.56
2023-04-23T03:55:33.649Z,-11155.56
2023-04-23T03:58:41.447Z,-11163.31
2023-04-23T04:01:49.324Z,-11163.59
2023-04-23T04:04:56.745Z,-11156.00
2023-04-23T04:08:05.162Z,-11153.75
2023-04-23T05:16:47.192Z,-11172.59
2023-04-23T05:19:53.580Z,-11172.59
2023-04-23T05:23:02.378Z,-11167.81
2023-04-23T05:26:08.329Z,-11157.13
2023-04-23T05:29:18.062Z,-11153.75
2023-04-23T05:32:25.756Z,-11165.97
2023-04-23T05:35:32.114Z,-11173.00
2023-04-23T05:38:37.896Z,-11156.00
2023-04-23T05:41:43.901Z,-11176.66
2023-04-23T05:44:50.128Z,-11172.44
2023-04-23T05:47:57.796Z,-11170.75
2023-04-23T05:51:04.177Z,-11180.59
2023-04-23T05:54:10.657Z,-11155.16
2023-04-23T05:57:17.278Z,-11155.44
2023-04-23T06:00:23.637Z,-11153.47
2023-04-23T06:03:31.526Z,-11152.91
2023-04-23T06:06:38.193Z,-11154.03
2023-04-23T06:09:44.680Z,-11191.00
2023-04-23T06:12:50.907Z,-11183.69
2023-04-23T06:15:57.082Z,-11197.03
2023-04-23T06:19:04.996Z,-11176.22
2023-04-23T06:22:11.479Z,-11162.19
2023-04-23T06:25:17.726Z,-11180.88
2023-04-23T06:28:23.818Z,-11167.66
2023-04-23T06:31:30.351Z,-11181.44
2023-04-23T06:34:46.645Z,-11207.88
2023-04-23T06:37:59.564Z,-11191.69
2023-04-23T06:41:06.233Z,-11192.53
2023-04-23T06:44:12.650Z,-11186.91
2023-04-23T06:47:19.031Z,-11181.00
2023-04-23T06:50:26.673Z,-11188.88
2023-04-23T06:53:33.194Z,-11174.53
2023-04-23T06:56:39.681Z,-11162.75
2023-04-23T06:59:46.223Z,-11220.94
2023-04-23T07:02:52.552Z,-11210.81
2023-04-23T07:06:00.594Z,-11244.59
2023-04-23T07:09:06.549Z,-11221.94
2023-04-23T07:12:12.891Z,-11200.41
2023-04-23T07:15:19.411Z,-11207.44
2023-04-23T07:18:25.552Z,-11238.09
2023-04-23T07:21:33.262Z,-11234.59
2023-04-23T07:24:39.765Z,-11227.69
2023-04-23T07:27:45.981Z,-11259.78
2023-04-23T07:30:52.398Z,-11249.66
2023-04-23T07:33:58.274Z,-11231.91
2023-04-23T07:37:05.874Z,-11255.41
2023-04-23T07:40:12.702Z,-11262.59
2023-04-23T07:43:19.073Z,-11308.19
2023-04-23T07:46:25.651Z,-11275.25
2023-04-23T07:49:32.183Z,-11250.63
2023-04-23T07:52:39.570Z,-11241.63
2023-04-23T07:55:45.827Z,-11285.69
2023-04-23T07:58:54.169Z,-11289.34
2023-04-23T08:02:00.941Z,-11278.63
2023-04-23T08:05:08.386Z,-11296.66
2023-04-23T08:08:16.371Z,-11279.47
2023-04-23T08:11:22.894Z,-11303.56
2023-04-23T08:14:29.065Z,-11295.53
2023-04-23T08:17:35.633Z,-11273.84
2023-04-23T08:20:41.876Z,-11303.84
2023-04-23T08:23:49.402Z,-11313.69
2023-04-23T08:26:55.924Z,-11340.03
2023-04-23T08:30:02.241Z,-11337.22
2023-04-23T08:33:08.923Z,-11312.13
2023-04-23T08:36:15.727Z,-11334.81
2023-04-23T08:39:23.593Z,-11304.97
2023-04-23T08:42:39.293Z,-11325.94
2023-04-23T08:45:48.668Z,-11332.41
2023-04-23T08:48:56.025Z,-11326.38
2023-04-23T08:52:16.413Z,-11333.84
2023-04-23T08:55:24.901Z,-11362.56
2023-04-23T08:58:32.343Z,-11358.47
2023-04-23T09:01:39.170Z,-11395.25
2023-04-23T09:04:49.565Z,-11403.56
2023-04-23T09:07:59.412Z,-11395.69
2023-04-23T09:11:07.974Z,-11419.78
2023-04-23T09:14:15.038Z,-11389.34
2023-04-23T09:17:24.170Z,-11416.81
2023-04-23T09:20:30.288Z,-11438.94
2023-04-23T09:23:41.421Z,-11442.06
2023-04-23T09:26:50.542Z,-11472.22
2023-04-23T09:29:57.738Z,-11439.66
2023-04-23T09:33:06.531Z,-11448.94
2023-04-23T09:36:16.364Z,-11449.09
2023-04-23T09:39:24.295Z,-11440.34
2023-04-23T09:42:32.576Z,-11443.88
2023-04-23T09:45:48.765Z,-11450.09
2023-04-23T09:48:58.209Z,-11420.34
2023-04-23T09:52:08.415Z,-11413.44
2023-04-23T09:55:14.846Z,-11420.63
2023-04-23T09:58:28.811Z,-11415.81
2023-04-23T10:01:35.480Z,-11409.78
2023-04-23T10:04:42.184Z,-11420.63
2023-04-23T10:07:50.341Z,-11436.97
2023-04-23T10:11:09.546Z,-11418.66
2023-04-23T10:14:25.702Z,-11415.53
2023-04-23T10:17:32.727Z,-11400.88
2023-04-23T10:20:38.820Z,-11418.78
2023-04-23T10:23:48.003Z,-11428.53
2023-04-23T10:26:58.429Z,-11425.41
2023-04-23T10:30:07.746Z,-11481.81
2023-04-23T10:33:26.559Z,-11451.06
2023-04-23T10:36:36.242Z,-11434.84
2023-04-23T10:39:46.094Z,-11496.06
2023-04-23T10:42:53.195Z,-11449.38
2023-04-23T10:46:01.789Z,-11493.66
2023-04-23T10:49:15.373Z,-11466.16
2023-04-23T10:52:25.116Z,-11455.59
2023-04-23T10:55:33.958Z,-11489.16
2023-04-23T10:58:52.738Z,-11493.38
2023-04-23T11:02:07.445Z,-11488.31
2023-04-23T11:05:13.678Z,-11522.44
2023-04-23T11:08:20.136Z,-11500.56
2023-04-23T11:11:41.388Z,-11505.94
2023-04-23T11:14:50.119Z,-11488.31
2023-04-23T11:18:03.997Z,-11480.13
2023-04-23T11:21:10.634Z,-11497.19
2023-04-23T11:24:17.080Z,-11437.81
2023-04-23T11:27:23.484Z,-11484.63
2023-04-23T11:30:31.409Z,-11510.44
2023-04-23T11:33:40.291Z,-11471.37
2023-04-23T11:36:47.786Z,-11524.28
2023-04-23T11:39:54.267Z,-11464.31
2023-04-23T11:43:00.420Z,-11467.16
2023-04-23T11:46:06.725Z,-11450.38
2023-04-23T11:49:14.864Z,-11458.69
2023-04-23T11:52:21.257Z,-11430.22
2023-04-23T11:55:27.662Z,-11438.53
2023-04-23T11:58:33.790Z,-11456.16
2023-04-23T12:01:48.006Z,-11496.06
2023-04-23T12:04:56.344Z,-11529.50
2023-04-23T12:08:10.399Z,-11526.66
2023-04-23T12:11:16.807Z,-11508.63
2023-04-23T12:14:28.975Z,-11500.00
2023-04-23T12:17:36.250Z,-11516.38
2023-04-23T12:20:44.309Z,-11523.16
2023-04-23T12:23:53.208Z,-11500.72
2023-04-23T12:27:02.872Z,-11509.88
2023-04-23T12:30:11.883Z,-11524.00
2023-04-23T12:33:18.966Z,-11519.47
2023-04-23T12:36:29.968Z,-11527.09
2023-04-23T12:39:36.584Z,-11531.75
2023-04-23T12:42:42.760Z,-11521.72
2023-04-23T12:45:52.417Z,-11548.41
2023-04-23T12:48:59.003Z,-11562.78
2023-04-23T12:52:08.353Z,-11522.44
2023-04-23T12:55:15.111Z,-11504.66
2023-04-23T12:58:24.165Z,-11556.59
2023-04-23T13:01:34.146Z,-11488.88
2023-04-23T13:04:40.626Z,-11526.66
2023-04-23T13:07:48.318Z,-11518.91
2023-04-23T13:10:54.481Z,-11509.47
2023-04-23T13:14:00.866Z,-11524.13
2023-04-23T13:17:08.372Z,-11486.75
2023-04-23T13:20:14.505Z,-11495.63
2023-04-23T13:23:22.016Z,-11450.50
2023-04-23T13:26:30.791Z,-11473.06
2023-04-23T13:29:37.101Z,-11457.69
2023-04-23T13:32:43.613Z,-11470.66
2023-04-23T13:35:49.724Z,-11449.38
2023-04-23T13:38:57.704Z,-11466.16
2023-04-23T13:42:09.535Z,-11479.00
2023-04-23T13:45:16.931Z,-11468.97
2023-04-23T13:48:23.376Z,-11476.03
2023-04-23T13:51:35.456Z,-11485.91
2023-04-23T13:54:43.728Z,-11488.59
2023-04-23T13:57:50.032Z,-11479.69
2023-04-23T14:00:56.124Z,-11463.47
2023-04-23T14:04:04.428Z,-11456.16
2023-04-23T14:07:10.743Z,-11443.47
2023-04-23T14:10:19.022Z,-11435.28
2023-04-23T14:13:25.185Z,-11417.38
2023-04-23T14:16:31.559Z,-11437.69
2023-04-23T14:19:38.101Z,-11416.38
2023-04-23T14:22:44.702Z,-11426.53
2023-04-23T14:25:54.974Z,-11447.13
2023-04-23T14:29:05.274Z,-11445.16
2023-04-23T14:32:12.630Z,-11421.47
2023-04-23T14:35:24.526Z,-11421.31
2023-04-23T14:38:36.583Z,-11404.84
2023-04-23T14:41:44.858Z,-11429.50
2023-04-23T14:44:53.490Z,-11435.13
2023-04-23T14:48:00.645Z,-11427.38
2023-04-23T14:51:07.192Z,-11424.00
2023-04-23T14:54:13.708Z,-11425.69
2023-04-23T14:57:21.636Z,-11413.84
2023-04-23T15:00:28.234Z,-11407.66
2023-04-23T15:03:35.087Z,-11403.00
2023-04-23T15:06:41.728Z,-11398.91
2023-04-23T15:09:48.038Z,-11403.72
2023-04-23T15:13:04.621Z,-11412.44
2023-04-23T15:16:28.431Z,-11412.16
2023-04-23T15:19:46.597Z,-11398.34
2023-04-23T15:22:53.060Z,-11399.63
2023-04-23T15:25:59.404Z,-11400.59
2023-04-23T15:29:09.077Z,-11404.84
2023-04-23T15:32:16.696Z,-11407.38
2023-04-23T15:35:23.602Z,-11396.38
2023-04-23T15:38:29.883Z,-11400.59
2023-04-23T15:41:39.319Z,-11393.28
2023-04-23T15:44:50.616Z,-11387.78
2023-04-23T15:47:56.987Z,-11385.53
2023-04-23T15:51:03.326Z,-11379.47
2023-04-23T15:54:09.759Z,-11380.03
2023-04-23T15:57:16.502Z,-11379.47
2023-04-23T16:00:24.759Z,-11378.06
2023-04-23T16:03:31.462Z,-11379.31
2023-04-23T16:06:38.359Z,-11368.75
2023-04-23T16:09:44.596Z,-11361.16
2023-04-23T16:12:50.798Z,-11353.81
2023-04-23T16:15:58.599Z,-11354.66
2023-04-23T16:19:05.117Z,-11340.03
2023-04-23T16:22:11.589Z,-11349.31
2023-04-23T16:25:18.192Z,-11342.00
2023-04-23T16:28:24.847Z,-11343.53
2023-04-23T16:31:32.549Z,-11341.44
2023-04-23T16:34:38.968Z,-11338.06
2023-04-23T16:37:44.955Z,-11339.19
2023-04-23T16:40:51.731Z,-11331.56
2023-04-23T16:43:58.062Z,-11335.94
2023-04-23T16:47:05.910Z,-11330.31
2023-04-23T16:50:13.056Z,-11321.56
2023-04-23T16:53:19.138Z,-11313.41
2023-04-23T16:56:25.657Z,-11315.66
2023-04-23T16:59:32.023Z,-11311.28
2023-04-23T17:02:42.043Z,-11308.75
2023-04-23T17:05:51.614Z,-11307.91
2023-04-23T17:08:59.464Z,-11302.72
2023-04-23T17:12:07.924Z,-11302.28
2023-04-23T17:15:14.181Z,-11298.63
2023-04-23T17:18:21.724Z,-11293.00
2023-04-23T17:21:30.441Z,-11293.69
2023-04-23T17:24:37.757Z,-11288.47
2023-04-23T17:27:45.941Z,-11288.19
2023-04-23T17:30:54.037Z,-11290.19
2023-04-23T17:34:01.412Z,-11283.00
2023-04-23T17:37:07.513Z,-11284.28
2023-04-23T17:40:14.050Z,-11281.16
2023-04-23T17:43:21.028Z,-11278.22
2023-04-23T17:46:27.582Z,-11278.34
2023-04-23T17:49:35.041Z,-11279.19
2023-04-23T17:52:41.394Z,-11275.97
2023-04-23T17:55:50.401Z,-11278.06
2023-04-23T17:58:56.184Z,-11276.38
2023-04-23T18:02:03.834Z,-11271.88
2023-04-23T18:05:13.180Z,-11278.22
2023-04-23T18:08:19.651Z,-11273.56
2023-04-23T18:11:25.968Z,-11272.44
2023-04-23T18:14:32.027Z,-11266.81
2023-04-23T18:17:38.273Z,-11269.22
2023-04-23T18:20:46.447Z,-11269.91
2023-04-23T18:23:53.136Z,-11269.06
2023-04-23T18:26:59.628Z,-11259.50
2023-04-23T18:30:08.329Z,-11260.47
2023-04-23T18:33:27.379Z,-11259.50
2023-04-23T18:36:39.160Z,-11257.53
2023-04-23T18:39:45.945Z,-11256.69
2023-04-23T18:42:52.455Z,-11255.56
2023-04-23T18:45:59.064Z,-11252.59
2023-04-23T18:49:07.827Z,-11255.13
2023-04-23T18:52:15.792Z,-11251.47
2023-04-23T18:55:22.150Z,-11253.03
2023-04-23T18:58:30.288Z,-11254.72
2023-04-23T19:01:37.199Z,-11249.09
2023-04-23T19:04:43.884Z,-11246.97
2023-04-23T19:07:52.005Z,-11247.97
2023-04-23T19:10:58.778Z,-11245.84
2023-04-23T19:14:05.338Z,-11244.59
2023-04-23T19:17:11.725Z,-11239.78
2023-04-23T19:20:18.749Z,-11238.94
2023-04-23T19:23:26.677Z,-11240.34
2023-04-23T19:26:33.169Z,-11235.31
2023-04-23T19:29:39.826Z,-11236.84
2023-04-23T19:32:46.294Z,-11229.53
2023-04-23T19:35:52.499Z,-11218.69
2023-04-23T19:39:00.199Z,-11220.94
2023-04-23T19:42:07.238Z,-11224.47
2023-04-23T19:45:15.559Z,-11223.62
2023-04-23T19:48:22.057Z,-11225.72
2023-04-23T19:51:32.992Z,-11228.81
2023-04-23T19:54:42.149Z,-11227.41
2023-04-23T19:57:48.830Z,-11225.72
2023-04-23T20:00:55.299Z,-11216.03
2023-04-23T20:04:01.653Z,-11212.94
2023-04-23T20:07:08.298Z,-11213.50
2023-04-23T20:10:17.514Z,-11214.19
2023-04-23T20:13:25.233Z,-11211.09
2023-04-23T20:16:31.787Z,-11205.47
2023-04-23T20:19:38.586Z,-11198.31
2023-04-23T20:22:44.861Z,-11203.38
2023-04-23T20:25:52.466Z,-11205.19
2023-04-23T20:28:58.925Z,-11206.31
2023-04-23T20:32:05.286Z,-11205.47
2023-04-23T20:35:30.874Z,-11199.56
2023-04-23T20:38:38.121Z,-11200.41
2023-04-23T20:41:46.743Z,-11197.88
2023-04-23T20:44:53.150Z,-11190.28
2023-04-23T20:48:02.081Z,-11192.25
2023-04-23T20:51:08.255Z,-11193.53
2023-04-23T20:54:14.545Z,-11188.31
2023-04-23T20:57:21.900Z,-11186.63
2023-04-23T21:00:28.450Z,-11192.25
2023-04-23T21:03:37.028Z,-11189.16
2023-04-23T21:06:44.075Z,-11191.00
2023-04-23T21:09:50.328Z,-11187.06
2023-04-23T21:12:58.549Z,-11180.31
2023-04-23T21:16:05.201Z,-11180.72
2023-04-23T21:19:11.520Z,-11175.09
2023-04-23T21:22:17.597Z,-11173.28
2023-04-23T21:25:23.813Z,-11170.34
2023-04-23T21:28:32.417Z,-11171.31
2023-04-23T21:31:44.976Z,-11168.94
2023-04-23T21:34:51.417Z,-11173.72
2023-04-23T21:37:57.840Z,-11165.00
2023-04-23T21:41:04.398Z,-11165.00
2023-04-23T21:44:12.009Z,-11158.81
2023-04-23T21:47:18.489Z,-11160.63
2023-04-23T21:50:25.100Z,-11166.69
2023-04-23T21:53:31.609Z,-11158.25
2023-04-23T21:56:38.082Z,-11165.41
2023-04-23T21:59:45.962Z,-11162.03
2023-04-23T22:02:55.193Z,-11157.25
2023-04-23T22:06:02.784Z,-11126.34
2023-04-23T22:09:10.323Z,-11114.97
2023-04-23T22:12:16.981Z,-11134.34
2023-04-23T22:15:25.790Z,-11137.44
2023-04-23T22:18:33.604Z,-11157.13
2023-04-23T22:21:39.890Z,-11155.16
2023-04-23T22:24:46.437Z,-11148.81
2023-04-23T22:27:52.796Z,-11150.94
2023-04-23T22:31:00.789Z,-11137.31
2023-04-23T22:34:07.010Z,-11133.50
2023-04-23T22:37:13.584Z,-11140.97
2023-04-23T22:40:20.015Z,-11141.66
2023-04-23T22:43:26.383Z,-11136.31
2023-04-23T22:46:34.667Z,-11142.38
2023-04-23T22:49:42.278Z,-11137.44
2023-04-23T22:52:49.084Z,-11122.41
2023-04-23T22:55:55.945Z,-11126.22
2023-04-23T22:59:02.374Z,-11131.97
2023-04-23T23:02:10.097Z,-11137.31
2023-04-23T23:05:16.538Z,-11124.94
2023-04-23T23:08:22.643Z,-11136.19
2023-04-23T23:11:29.795Z,-11127.34
2023-04-23T23:14:37.937Z,-11127.63
2023-04-23T23:17:45.661Z,-11113.84
2023-04-23T23:20:51.984Z,-11111.88
2023-04-23T23:23:58.336Z,-11114.28
2023-04-23T23:27:04.407Z,-11130.41
2023-04-23T23:30:11.636Z,-11139.13
2023-04-23T23:33:19.624Z,-11135.63
2023-04-23T23:36:26.255Z,-11131.69
2023-04-23T23:39:32.355Z,-11136.88
2023-04-23T23:42:38.636Z,-11140.53
2023-04-23T23:45:45.267Z,-11136.03
2023-04-23T23:48:53.200Z,-11138.28
2023-04-23T23:51:59.538Z,-11139.69
2023-04-23T23:55:07.176Z,-11137.88
2023-04-23T23:58:13.386Z,-11136.31
